sensor_id;sensor_type;location;lat;lon;timestamp;P1;durP1;ratioP1;P2;durP2;ratioP2
77872;SDS011;67068;52.116;4.440;2023-09-12T00:01:56;13.60;;;7.93;;
77872;SDS011;67068;52.116;4.440;2023-09-12T00:04:21;13.43;;;8.43;;
77872;SDS011;67068;52.116;4.440;2023-09-12T00:06:46;13.57;;;7.73;;
77872;SDS011;67068;52.116;4.440;2023-09-12T00:09:12;13.53;;;7.40;;
77872;SDS011;67068;52.116;4.440;2023-09-12T00:11:37;13.93;;;7.90;;
77872;SDS011;67068;52.116;4.440;2023-09-12T00:14:02;14.30;;;7.63;;
77872;SDS011;67068;52.116;4.440;2023-09-12T00:16:28;15.23;;;9.07;;
77872;SDS011;67068;52.116;4.440;2023-09-12T00:18:53;13.83;;;7.60;;
77872;SDS011;67068;52.116;4.440;2023-09-12T00:21:18;14.43;;;7.73;;
77872;SDS011;67068;52.116;4.440;2023-09-12T00:23:43;14.67;;;8.10;;
77872;SDS011;67068;52.116;4.440;2023-09-12T00:26:08;13.83;;;7.83;;
77872;SDS011;67068;52.116;4.440;2023-09-12T00:28:34;14.60;;;8.67;;
77872;SDS011;67068;52.116;4.440;2023-09-12T00:30:59;12.80;;;7.60;;
77872;SDS011;67068;52.116;4.440;2023-09-12T00:33:24;13.68;;;7.40;;
77872;SDS011;67068;52.116;4.440;2023-09-12T00:35:49;12.00;;;6.80;;
77872;SDS011;67068;52.116;4.440;2023-09-12T00:38:15;12.17;;;7.00;;
77872;SDS011;67068;52.116;4.440;2023-09-12T00:40:40;12.53;;;7.00;;
77872;SDS011;67068;52.116;4.440;2023-09-12T00:43:05;12.77;;;7.10;;
77872;SDS011;67068;52.116;4.440;2023-09-12T00:45:31;12.35;;;7.30;;
77872;SDS011;67068;52.116;4.440;2023-09-12T00:47:57;13.30;;;7.77;;
77872;SDS011;67068;52.116;4.440;2023-09-12T00:50:23;13.48;;;7.38;;
77872;SDS011;67068;52.116;4.440;2023-09-12T00:52:48;14.10;;;7.60;;
77872;SDS011;67068;52.116;4.440;2023-09-12T00:55:14;14.23;;;8.20;;
77872;SDS011;67068;52.116;4.440;2023-09-12T00:57:39;16.02;;;7.90;;
77872;SDS011;67068;52.116;4.440;2023-09-12T01:00:05;13.88;;;7.65;;
77872;SDS011;67068;52.116;4.440;2023-09-12T01:02:37;12.30;;;6.80;;
77872;SDS011;67068;52.116;4.440;2023-09-12T01:05:05;12.57;;;7.18;;
77872;SDS011;67068;52.116;4.440;2023-09-12T01:07:30;13.43;;;7.38;;
77872;SDS011;67068;52.116;4.440;2023-09-12T01:09:55;12.93;;;6.77;;
77872;SDS011;67068;52.116;4.440;2023-09-12T01:12:20;11.40;;;6.10;;
77872;SDS011;67068;52.116;4.440;2023-09-12T01:14:46;12.82;;;7.18;;
77872;SDS011;67068;52.116;4.440;2023-09-12T01:17:11;11.70;;;6.43;;
77872;SDS011;67068;52.116;4.440;2023-09-12T01:19:37;12.30;;;6.75;;
77872;SDS011;67068;52.116;4.440;2023-09-12T01:27:32;12.15;;;6.85;;
77872;SDS011;67068;52.116;4.440;2023-09-12T01:30:01;11.85;;;6.82;;
77872;SDS011;67068;52.116;4.440;2023-09-12T01:32:26;12.18;;;6.40;;
77872;SDS011;67068;52.116;4.440;2023-09-12T01:34:52;13.50;;;7.22;;
77872;SDS011;67068;52.116;4.440;2023-09-12T01:37:18;13.20;;;6.73;;
77872;SDS011;67068;52.116;4.440;2023-09-12T01:39:43;12.93;;;7.17;;
77872;SDS011;67068;52.116;4.440;2023-09-12T01:42:08;12.90;;;6.43;;
77872;SDS011;67068;52.116;4.440;2023-09-12T01:44:36;13.43;;;7.72;;
77872;SDS011;67068;52.116;4.440;2023-09-12T01:47:03;12.15;;;6.70;;
77872;SDS011;67068;52.116;4.440;2023-09-12T01:49:29;11.55;;;6.35;;
77872;SDS011;67068;52.116;4.440;2023-09-12T01:51:54;12.10;;;6.40;;
77872;SDS011;67068;52.116;4.440;2023-09-12T01:54:20;12.00;;;6.28;;
77872;SDS011;67068;52.116;4.440;2023-09-12T01:56:45;12.77;;;6.32;;
77872;SDS011;67068;52.116;4.440;2023-09-12T01:59:11;13.02;;;6.88;;
77872;SDS011;67068;52.116;4.440;2023-09-12T02:01:36;11.90;;;7.07;;
77872;SDS011;67068;52.116;4.440;2023-09-12T02:04:01;13.47;;;8.03;;
77872;SDS011;67068;52.116;4.440;2023-09-12T02:06:26;12.33;;;6.43;;
77872;SDS011;67068;52.116;4.440;2023-09-12T02:08:52;11.67;;;6.23;;
77872;SDS011;67068;52.116;4.440;2023-09-12T02:11:17;13.47;;;7.40;;
77872;SDS011;67068;52.116;4.440;2023-09-12T02:13:42;13.63;;;7.30;;
77872;SDS011;67068;52.116;4.440;2023-09-12T02:16:07;12.43;;;6.43;;
77872;SDS011;67068;52.116;4.440;2023-09-12T02:18:32;12.20;;;6.63;;
77872;SDS011;67068;52.116;4.440;2023-09-12T02:20:58;12.43;;;6.73;;
77872;SDS011;67068;52.116;4.440;2023-09-12T02:23:23;10.63;;;5.72;;
77872;SDS011;67068;52.116;4.440;2023-09-12T02:25:49;11.40;;;6.13;;
77872;SDS011;67068;52.116;4.440;2023-09-12T02:28:14;11.77;;;6.03;;
77872;SDS011;67068;52.116;4.440;2023-09-12T02:30:39;11.63;;;6.00;;
77872;SDS011;67068;52.116;4.440;2023-09-12T02:33:05;11.57;;;6.13;;
77872;SDS011;67068;52.116;4.440;2023-09-12T02:35:30;12.50;;;6.10;;
77872;SDS011;67068;52.116;4.440;2023-09-12T02:37:55;10.63;;;5.53;;
77872;SDS011;67068;52.116;4.440;2023-09-12T02:40:21;11.32;;;6.18;;
77872;SDS011;67068;52.116;4.440;2023-09-12T02:42:46;10.67;;;5.93;;
77872;SDS011;67068;52.116;4.440;2023-09-12T02:45:11;11.70;;;6.00;;
77872;SDS011;67068;52.116;4.440;2023-09-12T02:47:36;11.50;;;5.57;;
77872;SDS011;67068;52.116;4.440;2023-09-12T02:50:02;11.17;;;6.03;;
77872;SDS011;67068;52.116;4.440;2023-09-12T02:52:27;10.93;;;6.13;;
77872;SDS011;67068;52.116;4.440;2023-09-12T02:54:52;10.27;;;5.30;;
77872;SDS011;67068;52.116;4.440;2023-09-12T02:57:17;11.00;;;5.50;;
77872;SDS011;67068;52.116;4.440;2023-09-12T02:59:42;10.73;;;5.50;;
77872;SDS011;67068;52.116;4.440;2023-09-12T03:02:08;10.73;;;5.23;;
77872;SDS011;67068;52.116;4.440;2023-09-12T03:04:34;10.95;;;5.97;;
77872;SDS011;67068;52.116;4.440;2023-09-12T03:07:00;11.05;;;5.60;;
77872;SDS011;67068;52.116;4.440;2023-09-12T03:09:25;11.10;;;5.27;;
77872;SDS011;67068;52.116;4.440;2023-09-12T03:11:50;11.57;;;5.63;;
77872;SDS011;67068;52.116;4.440;2023-09-12T03:14:16;11.23;;;5.90;;
77872;SDS011;67068;52.116;4.440;2023-09-12T03:16:41;10.83;;;4.90;;
77872;SDS011;67068;52.116;4.440;2023-09-12T03:19:06;11.17;;;5.57;;
77872;SDS011;67068;52.116;4.440;2023-09-12T03:21:31;10.80;;;5.67;;
77872;SDS011;67068;52.116;4.440;2023-09-12T03:23:56;10.00;;;5.03;;
77872;SDS011;67068;52.116;4.440;2023-09-12T03:26:22;10.57;;;5.23;;
77872;SDS011;67068;52.116;4.440;2023-09-12T03:28:48;11.20;;;5.90;;
77872;SDS011;67068;52.116;4.440;2023-09-12T03:31:14;11.00;;;6.00;;
77872;SDS011;67068;52.116;4.440;2023-09-12T03:33:39;10.77;;;5.33;;
77872;SDS011;67068;52.116;4.440;2023-09-12T03:36:05;11.27;;;5.95;;
77872;SDS011;67068;52.116;4.440;2023-09-12T03:38:30;10.68;;;5.47;;
77872;SDS011;67068;52.116;4.440;2023-09-12T03:40:55;11.93;;;5.63;;
77872;SDS011;67068;52.116;4.440;2023-09-12T03:43:21;10.63;;;5.93;;
77872;SDS011;67068;52.116;4.440;2023-09-12T03:45:46;11.33;;;5.13;;
77872;SDS011;67068;52.116;4.440;2023-09-12T03:48:11;12.23;;;4.93;;
77872;SDS011;67068;52.116;4.440;2023-09-12T03:50:36;10.50;;;5.50;;
77872;SDS011;67068;52.116;4.440;2023-09-12T03:53:02;11.13;;;5.60;;
77872;SDS011;67068;52.116;4.440;2023-09-12T03:55:27;11.77;;;5.73;;
77872;SDS011;67068;52.116;4.440;2023-09-12T03:57:52;11.93;;;5.30;;
77872;SDS011;67068;52.116;4.440;2023-09-12T04:00:17;10.77;;;5.77;;
77872;SDS011;67068;52.116;4.440;2023-09-12T04:02:43;11.45;;;5.55;;
77872;SDS011;67068;52.116;4.440;2023-09-12T04:05:08;10.73;;;5.23;;
77872;SDS011;67068;52.116;4.440;2023-09-12T04:07:34;10.98;;;5.10;;
77872;SDS011;67068;52.116;4.440;2023-09-12T04:09:59;10.20;;;5.33;;
77872;SDS011;67068;52.116;4.440;2023-09-12T04:12:24;10.47;;;4.77;;
77872;SDS011;67068;52.116;4.440;2023-09-12T04:14:50;10.20;;;4.77;;
77872;SDS011;67068;52.116;4.440;2023-09-12T04:17:16;10.60;;;4.63;;
77872;SDS011;67068;52.116;4.440;2023-09-12T04:19:41;9.80;;;4.90;;
77872;SDS011;67068;52.116;4.440;2023-09-12T04:22:06;10.30;;;5.13;;
77872;SDS011;67068;52.116;4.440;2023-09-12T04:24:31;10.57;;;5.07;;
77872;SDS011;67068;52.116;4.440;2023-09-12T04:26:57;9.63;;;4.60;;
77872;SDS011;67068;52.116;4.440;2023-09-12T04:29:22;9.90;;;4.70;;
77872;SDS011;67068;52.116;4.440;2023-09-12T04:31:47;10.20;;;5.10;;
77872;SDS011;67068;52.116;4.440;2023-09-12T04:34:12;10.23;;;4.90;;
77872;SDS011;67068;52.116;4.440;2023-09-12T04:36:38;11.60;;;5.17;;
77872;SDS011;67068;52.116;4.440;2023-09-12T04:39:05;10.30;;;5.07;;
77872;SDS011;67068;52.116;4.440;2023-09-12T04:41:30;12.13;;;5.43;;
77872;SDS011;67068;52.116;4.440;2023-09-12T04:43:56;10.60;;;5.13;;
77872;SDS011;67068;52.116;4.440;2023-09-12T04:46:22;10.52;;;4.82;;
77872;SDS011;67068;52.116;4.440;2023-09-12T04:48:47;10.20;;;4.40;;
77872;SDS011;67068;52.116;4.440;2023-09-12T04:51:12;10.97;;;4.73;;
77872;SDS011;67068;52.116;4.440;2023-09-12T04:53:37;11.63;;;5.40;;
77872;SDS011;67068;52.116;4.440;2023-09-12T04:56:03;11.70;;;5.40;;
77872;SDS011;67068;52.116;4.440;2023-09-12T04:58:29;11.25;;;4.63;;
77872;SDS011;67068;52.116;4.440;2023-09-12T05:00:54;10.57;;;5.18;;
77872;SDS011;67068;52.116;4.440;2023-09-12T05:03:20;11.52;;;5.28;;
77872;SDS011;67068;52.116;4.440;2023-09-12T05:05:46;11.73;;;5.53;;
77872;SDS011;67068;52.116;4.440;2023-09-12T05:08:11;11.15;;;5.35;;
77872;SDS011;67068;52.116;4.440;2023-09-12T05:10:37;12.00;;;5.13;;
77872;SDS011;67068;52.116;4.440;2023-09-12T05:13:04;12.73;;;5.65;;
77872;SDS011;67068;52.116;4.440;2023-09-12T05:15:29;13.03;;;5.57;;
77872;SDS011;67068;52.116;4.440;2023-09-12T05:17:54;10.43;;;5.00;;
77872;SDS011;67068;52.116;4.440;2023-09-12T05:20:19;11.97;;;5.60;;
77872;SDS011;67068;52.116;4.440;2023-09-12T05:22:44;11.27;;;4.77;;
77872;SDS011;67068;52.116;4.440;2023-09-12T05:25:10;10.37;;;4.93;;
77872;SDS011;67068;52.116;4.440;2023-09-12T05:27:35;10.13;;;4.97;;
77872;SDS011;67068;52.116;4.440;2023-09-12T05:30:00;10.70;;;5.07;;
77872;SDS011;67068;52.116;4.440;2023-09-12T05:32:25;11.70;;;6.10;;
77872;SDS011;67068;52.116;4.440;2023-09-12T05:34:50;11.13;;;5.30;;
77872;SDS011;67068;52.116;4.440;2023-09-12T05:37:16;10.90;;;5.75;;
77872;SDS011;67068;52.116;4.440;2023-09-12T05:39:41;11.10;;;5.13;;
77872;SDS011;67068;52.116;4.440;2023-09-12T05:42:06;11.30;;;5.37;;
77872;SDS011;67068;52.116;4.440;2023-09-12T05:44:32;11.33;;;5.93;;
77872;SDS011;67068;52.116;4.440;2023-09-12T05:46:57;11.25;;;5.60;;
77872;SDS011;67068;52.116;4.440;2023-09-12T05:49:22;12.30;;;5.63;;
77872;SDS011;67068;52.116;4.440;2023-09-12T05:51:48;11.60;;;4.97;;
77872;SDS011;67068;52.116;4.440;2023-09-12T05:54:13;11.37;;;6.03;;
77872;SDS011;67068;52.116;4.440;2023-09-12T05:56:39;11.05;;;5.13;;
77872;SDS011;67068;52.116;4.440;2023-09-12T05:59:05;10.87;;;5.37;;
77872;SDS011;67068;52.116;4.440;2023-09-12T06:01:30;12.75;;;5.53;;
77872;SDS011;67068;52.116;4.440;2023-09-12T06:03:55;10.80;;;4.50;;
77872;SDS011;67068;52.116;4.440;2023-09-12T06:06:21;11.13;;;5.13;;
77872;SDS011;67068;52.116;4.440;2023-09-12T06:08:47;11.68;;;5.28;;
77872;SDS011;67068;52.116;4.440;2023-09-12T06:11:12;11.43;;;5.40;;
77872;SDS011;67068;52.116;4.440;2023-09-12T06:13:38;12.03;;;5.43;;
77872;SDS011;67068;52.116;4.440;2023-09-12T06:16:03;10.67;;;5.30;;
77872;SDS011;67068;52.116;4.440;2023-09-12T06:18:30;11.43;;;5.13;;
77872;SDS011;67068;52.116;4.440;2023-09-12T06:20:57;13.20;;;5.85;;
77872;SDS011;67068;52.116;4.440;2023-09-12T06:23:22;13.32;;;5.63;;
77872;SDS011;67068;52.116;4.440;2023-09-12T06:25:47;11.53;;;5.47;;
77872;SDS011;67068;52.116;4.440;2023-09-12T06:28:13;12.73;;;6.37;;
77872;SDS011;67068;52.116;4.440;2023-09-12T06:30:49;11.27;;;5.47;;
77872;SDS011;67068;52.116;4.440;2023-09-12T06:33:14;11.23;;;4.83;;
77872;SDS011;67068;52.116;4.440;2023-09-12T06:35:39;11.30;;;5.27;;
77872;SDS011;67068;52.116;4.440;2023-09-12T06:38:04;10.60;;;4.70;;
77872;SDS011;67068;52.116;4.440;2023-09-12T06:40:29;11.07;;;5.47;;
77872;SDS011;67068;52.116;4.440;2023-09-12T06:42:55;10.40;;;5.10;;
77872;SDS011;67068;52.116;4.440;2023-09-12T06:45:20;11.70;;;5.93;;
77872;SDS011;67068;52.116;4.440;2023-09-12T06:47:45;10.57;;;4.30;;
77872;SDS011;67068;52.116;4.440;2023-09-12T06:50:10;10.87;;;5.00;;
77872;SDS011;67068;52.116;4.440;2023-09-12T06:52:36;10.87;;;5.03;;
77872;SDS011;67068;52.116;4.440;2023-09-12T06:55:01;11.50;;;4.83;;
77872;SDS011;67068;52.116;4.440;2023-09-12T06:57:26;9.90;;;4.57;;
77872;SDS011;67068;52.116;4.440;2023-09-12T06:59:51;10.83;;;4.90;;
77872;SDS011;67068;52.116;4.440;2023-09-12T07:02:16;10.43;;;4.60;;
77872;SDS011;67068;52.116;4.440;2023-09-12T07:04:43;11.68;;;4.70;;
77872;SDS011;67068;52.116;4.440;2023-09-12T07:07:08;10.30;;;4.73;;
77872;SDS011;67068;52.116;4.440;2023-09-12T07:09:33;10.47;;;4.93;;
77872;SDS011;67068;52.116;4.440;2023-09-12T07:11:59;9.47;;;4.20;;
77872;SDS011;67068;52.116;4.440;2023-09-12T07:14:24;8.73;;;3.93;;
77872;SDS011;67068;52.116;4.440;2023-09-12T07:16:50;10.23;;;4.25;;
77872;SDS011;67068;52.116;4.440;2023-09-12T07:19:15;10.37;;;4.33;;
77872;SDS011;67068;52.116;4.440;2023-09-12T07:21:41;10.23;;;4.65;;
77872;SDS011;67068;52.116;4.440;2023-09-12T07:24:06;9.77;;;4.30;;
77872;SDS011;67068;52.116;4.440;2023-09-12T07:26:31;11.27;;;5.25;;
77872;SDS011;67068;52.116;4.440;2023-09-12T07:28:57;10.23;;;4.77;;
77872;SDS011;67068;52.116;4.440;2023-09-12T07:31:23;8.75;;;3.78;;
77872;SDS011;67068;52.116;4.440;2023-09-12T07:33:48;9.73;;;4.70;;
77872;SDS011;67068;52.116;4.440;2023-09-12T07:36:13;9.70;;;4.57;;
77872;SDS011;67068;52.116;4.440;2023-09-12T07:38:39;9.30;;;4.38;;
77872;SDS011;67068;52.116;4.440;2023-09-12T07:41:04;8.88;;;3.78;;
77872;SDS011;67068;52.116;4.440;2023-09-12T07:43:30;9.20;;;4.15;;
77872;SDS011;67068;52.116;4.440;2023-09-12T07:45:58;9.87;;;4.10;;
77872;SDS011;67068;52.116;4.440;2023-09-12T07:48:23;9.82;;;4.22;;
77872;SDS011;67068;52.116;4.440;2023-09-12T07:50:49;9.77;;;4.80;;
77872;SDS011;67068;52.116;4.440;2023-09-12T07:53:14;9.77;;;4.30;;
77872;SDS011;67068;52.116;4.440;2023-09-12T07:55:39;10.20;;;4.33;;
77872;SDS011;67068;52.116;4.440;2023-09-12T07:58:14;9.27;;;4.05;;
77872;SDS011;67068;52.116;4.440;2023-09-12T08:00:39;9.60;;;4.30;;
77872;SDS011;67068;52.116;4.440;2023-09-12T08:03:05;10.15;;;4.47;;
77872;SDS011;67068;52.116;4.440;2023-09-12T08:05:30;8.57;;;4.00;;
77872;SDS011;67068;52.116;4.440;2023-09-12T08:07:55;10.67;;;4.57;;
77872;SDS011;67068;52.116;4.440;2023-09-12T08:10:21;10.07;;;4.10;;
77872;SDS011;67068;52.116;4.440;2023-09-12T08:12:46;8.33;;;3.83;;
77872;SDS011;67068;52.116;4.440;2023-09-12T08:15:11;9.32;;;4.35;;
77872;SDS011;67068;52.116;4.440;2023-09-12T08:17:38;8.93;;;4.20;;
77872;SDS011;67068;52.116;4.440;2023-09-12T08:20:03;11.02;;;5.07;;
77872;SDS011;67068;52.116;4.440;2023-09-12T08:22:29;9.93;;;4.72;;
77872;SDS011;67068;52.116;4.440;2023-09-12T08:24:54;10.13;;;4.50;;
77872;SDS011;67068;52.116;4.440;2023-09-12T08:27:19;9.07;;;4.10;;
77872;SDS011;67068;52.116;4.440;2023-09-12T08:29:45;10.20;;;4.60;;
77872;SDS011;67068;52.116;4.440;2023-09-12T08:32:13;14.35;;;6.07;;
77872;SDS011;67068;52.116;4.440;2023-09-12T08:34:38;15.47;;;7.67;;
77872;SDS011;67068;52.116;4.440;2023-09-12T08:37:03;12.70;;;5.97;;
77872;SDS011;67068;52.116;4.440;2023-09-12T08:39:38;13.27;;;6.40;;
77872;SDS011;67068;52.116;4.440;2023-09-12T08:42:04;18.65;;;9.43;;
77872;SDS011;67068;52.116;4.440;2023-09-12T08:44:29;14.40;;;7.72;;
77872;SDS011;67068;52.116;4.440;2023-09-12T08:46:55;15.37;;;7.07;;
77872;SDS011;67068;52.116;4.440;2023-09-12T08:49:20;18.27;;;9.68;;
77872;SDS011;67068;52.116;4.440;2023-09-12T08:51:45;16.08;;;8.85;;
77872;SDS011;67068;52.116;4.440;2023-09-12T08:54:11;13.57;;;6.63;;
77872;SDS011;67068;52.116;4.440;2023-09-12T08:56:36;11.13;;;5.27;;
77872;SDS011;67068;52.116;4.440;2023-09-12T08:59:04;17.25;;;9.57;;
77872;SDS011;67068;52.116;4.440;2023-09-12T09:01:30;16.00;;;8.20;;
77872;SDS011;67068;52.116;4.440;2023-09-12T09:03:55;15.23;;;8.32;;
77872;SDS011;67068;52.116;4.440;2023-09-12T09:06:21;15.88;;;8.10;;
77872;SDS011;67068;52.116;4.440;2023-09-12T09:08:47;15.80;;;8.55;;
77872;SDS011;67068;52.116;4.440;2023-09-12T09:11:19;14.45;;;8.40;;
77872;SDS011;67068;52.116;4.440;2023-09-12T09:13:44;14.60;;;7.33;;
77872;SDS011;67068;52.116;4.440;2023-09-12T09:16:13;17.83;;;8.13;;
77872;SDS011;67068;52.116;4.440;2023-09-12T09:21:20;13.20;;;7.65;;
77872;SDS011;67068;52.116;4.440;2023-09-12T09:23:47;16.10;;;7.55;;
77872;SDS011;67068;52.116;4.440;2023-09-12T09:26:12;13.70;;;7.30;;
77872;SDS011;67068;52.116;4.440;2023-09-12T09:28:37;12.27;;;7.07;;
77872;SDS011;67068;52.116;4.440;2023-09-12T09:31:04;12.25;;;6.90;;
77872;SDS011;67068;52.116;4.440;2023-09-12T09:33:34;17.35;;;8.15;;
77872;SDS011;67068;52.116;4.440;2023-09-12T09:36:03;16.63;;;8.48;;
77872;SDS011;67068;52.116;4.440;2023-09-12T09:38:29;16.15;;;7.97;;
77872;SDS011;67068;52.116;4.440;2023-09-12T09:40:55;17.70;;;8.00;;
77872;SDS011;67068;52.116;4.440;2023-09-12T09:43:20;13.70;;;7.63;;
77872;SDS011;67068;52.116;4.440;2023-09-12T09:45:46;13.32;;;6.85;;
77872;SDS011;67068;52.116;4.440;2023-09-12T09:48:21;12.95;;;5.95;;
77872;SDS011;67068;52.116;4.440;2023-09-12T09:50:46;13.80;;;6.68;;
77872;SDS011;67068;52.116;4.440;2023-09-12T09:53:11;14.55;;;6.97;;
77872;SDS011;67068;52.116;4.440;2023-09-12T09:55:37;13.77;;;6.90;;
77872;SDS011;67068;52.116;4.440;2023-09-12T09:58:02;11.80;;;6.03;;
77872;SDS011;67068;52.116;4.440;2023-09-12T10:00:28;12.05;;;6.72;;
77872;SDS011;67068;52.116;4.440;2023-09-12T10:02:54;11.35;;;6.10;;
77872;SDS011;67068;52.116;4.440;2023-09-12T10:05:20;13.95;;;6.95;;
77872;SDS011;67068;52.116;4.440;2023-09-12T10:07:47;11.98;;;6.60;;
77872;SDS011;67068;52.116;4.440;2023-09-12T10:10:12;12.80;;;7.07;;
77872;SDS011;67068;52.116;4.440;2023-09-12T10:12:39;13.27;;;6.60;;
77872;SDS011;67068;52.116;4.440;2023-09-12T10:15:07;12.20;;;6.07;;
77872;SDS011;67068;52.116;4.440;2023-09-12T10:17:35;13.85;;;6.30;;
77872;SDS011;67068;52.116;4.440;2023-09-12T10:20:02;12.23;;;6.25;;
77872;SDS011;67068;52.116;4.440;2023-09-12T10:22:35;13.88;;;6.25;;
77872;SDS011;67068;52.116;4.440;2023-09-12T10:25:02;13.35;;;6.10;;
77872;SDS011;67068;52.116;4.440;2023-09-12T10:27:28;11.05;;;6.05;;
77872;SDS011;67068;52.116;4.440;2023-09-12T10:29:54;13.02;;;6.80;;
77872;SDS011;67068;52.116;4.440;2023-09-12T10:32:21;12.63;;;6.68;;
77872;SDS011;67068;52.116;4.440;2023-09-12T10:34:48;11.90;;;6.50;;
77872;SDS011;67068;52.116;4.440;2023-09-12T10:37:16;11.02;;;6.05;;
77872;SDS011;67068;52.116;4.440;2023-09-12T10:39:45;10.90;;;5.60;;
77872;SDS011;67068;52.116;4.440;2023-09-12T10:42:11;10.63;;;5.68;;
77872;SDS011;67068;52.116;4.440;2023-09-12T10:44:37;12.65;;;5.57;;
77872;SDS011;67068;52.116;4.440;2023-09-12T10:47:03;11.45;;;5.85;;
77872;SDS011;67068;52.116;4.440;2023-09-12T10:49:29;11.00;;;5.25;;
77872;SDS011;67068;52.116;4.440;2023-09-12T10:51:54;10.63;;;5.72;;
77872;SDS011;67068;52.116;4.440;2023-09-12T10:54:25;11.25;;;5.82;;
77872;SDS011;67068;52.116;4.440;2023-09-12T10:57:06;10.43;;;5.57;;
77872;SDS011;67068;52.116;4.440;2023-09-12T10:59:32;10.68;;;5.95;;
77872;SDS011;67068;52.116;4.440;2023-09-12T11:04:44;10.77;;;5.50;;
77872;SDS011;67068;52.116;4.440;2023-09-12T11:10:15;10.73;;;5.38;;
77872;SDS011;67068;52.116;4.440;2023-09-12T11:12:43;11.90;;;5.78;;
77872;SDS011;67068;52.116;4.440;2023-09-12T11:15:09;10.40;;;5.13;;
77872;SDS011;67068;52.116;4.440;2023-09-12T11:17:41;9.85;;;5.43;;
77872;SDS011;67068;52.116;4.440;2023-09-12T11:20:07;12.02;;;5.57;;
77872;SDS011;67068;52.116;4.440;2023-09-12T11:22:37;9.98;;;5.43;;
77872;SDS011;67068;52.116;4.440;2023-09-12T11:25:04;11.50;;;5.40;;
77872;SDS011;67068;52.116;4.440;2023-09-12T11:28:15;10.40;;;4.97;;
77872;SDS011;67068;52.116;4.440;2023-09-12T11:30:16;10.57;;;5.65;;
77872;SDS011;67068;52.116;4.440;2023-09-12T11:32:42;10.27;;;5.25;;
77872;SDS011;67068;52.116;4.440;2023-09-12T11:35:09;10.68;;;5.25;;
77872;SDS011;67068;52.116;4.440;2023-09-12T11:37:35;10.65;;;5.63;;
77872;SDS011;67068;52.116;4.440;2023-09-12T11:40:48;10.60;;;5.13;;
77872;SDS011;67068;52.116;4.440;2023-09-12T11:42:49;10.15;;;5.18;;
77872;SDS011;67068;52.116;4.440;2023-09-12T11:45:15;10.55;;;5.45;;
77872;SDS011;67068;52.116;4.440;2023-09-12T11:47:42;9.80;;;5.10;;
77872;SDS011;67068;52.116;4.440;2023-09-12T11:50:08;9.38;;;4.93;;
77872;SDS011;67068;52.116;4.440;2023-09-12T11:52:36;10.65;;;5.53;;
77872;SDS011;67068;52.116;4.440;2023-09-12T11:55:05;9.90;;;4.88;;
77872;SDS011;67068;52.116;4.440;2023-09-12T11:57:30;9.55;;;4.80;;
77872;SDS011;67068;52.116;4.440;2023-09-12T11:59:57;10.45;;;5.07;;
77872;SDS011;67068;52.116;4.440;2023-09-12T12:02:22;9.30;;;4.63;;
77872;SDS011;67068;52.116;4.440;2023-09-12T12:04:47;9.73;;;4.65;;
77872;SDS011;67068;52.116;4.440;2023-09-12T12:07:13;10.87;;;5.00;;
77872;SDS011;67068;52.116;4.440;2023-09-12T12:09:38;10.50;;;5.00;;
77872;SDS011;67068;52.116;4.440;2023-09-12T12:12:04;9.93;;;4.95;;
77872;SDS011;67068;52.116;4.440;2023-09-12T12:14:30;9.65;;;5.13;;
77872;SDS011;67068;52.116;4.440;2023-09-12T12:17:01;9.70;;;4.68;;
77872;SDS011;67068;52.116;4.440;2023-09-12T12:19:30;10.55;;;5.07;;
77872;SDS011;67068;52.116;4.440;2023-09-12T12:21:55;10.03;;;4.40;;
77872;SDS011;67068;52.116;4.440;2023-09-12T12:24:20;9.90;;;5.10;;
77872;SDS011;67068;52.116;4.440;2023-09-12T12:26:45;10.00;;;4.60;;
77872;SDS011;67068;52.116;4.440;2023-09-12T12:29:11;11.00;;;4.60;;
77872;SDS011;67068;52.116;4.440;2023-09-12T12:31:36;10.48;;;4.60;;
77872;SDS011;67068;52.116;4.440;2023-09-12T12:34:02;9.55;;;5.05;;
77872;SDS011;67068;52.116;4.440;2023-09-12T12:36:28;9.32;;;4.70;;
77872;SDS011;67068;52.116;4.440;2023-09-12T12:38:54;9.20;;;5.00;;
77872;SDS011;67068;52.116;4.440;2023-09-12T12:41:23;9.33;;;4.97;;
77872;SDS011;67068;52.116;4.440;2023-09-12T12:43:49;9.98;;;4.60;;
77872;SDS011;67068;52.116;4.440;2023-09-12T12:46:14;9.82;;;4.57;;
77872;SDS011;67068;52.116;4.440;2023-09-12T12:48:42;10.73;;;4.60;;
77872;SDS011;67068;52.116;4.440;2023-09-12T12:51:22;8.98;;;4.38;;
77872;SDS011;67068;52.116;4.440;2023-09-12T12:53:49;8.52;;;4.35;;
77872;SDS011;67068;52.116;4.440;2023-09-12T12:56:19;9.18;;;4.47;;
77872;SDS011;67068;52.116;4.440;2023-09-12T12:58:48;8.57;;;4.45;;
77872;SDS011;67068;52.116;4.440;2023-09-12T13:01:14;9.75;;;4.30;;
77872;SDS011;67068;52.116;4.440;2023-09-12T13:03:40;9.05;;;4.60;;
77872;SDS011;67068;52.116;4.440;2023-09-12T13:06:05;9.07;;;4.40;;
77872;SDS011;67068;52.116;4.440;2023-09-12T13:08:32;8.45;;;4.18;;
77872;SDS011;67068;52.116;4.440;2023-09-12T13:10:59;8.93;;;4.22;;
77872;SDS011;67068;52.116;4.440;2023-09-12T13:13:24;9.10;;;4.67;;
77872;SDS011;67068;52.116;4.440;2023-09-12T13:15:50;8.93;;;4.47;;
77872;SDS011;67068;52.116;4.440;2023-09-12T13:18:15;9.67;;;4.70;;
77872;SDS011;67068;52.116;4.440;2023-09-12T13:20:40;8.90;;;4.57;;
77872;SDS011;67068;52.116;4.440;2023-09-12T13:23:05;10.53;;;4.77;;
77872;SDS011;67068;52.116;4.440;2023-09-12T13:25:30;9.07;;;4.40;;
77872;SDS011;67068;52.116;4.440;2023-09-12T13:27:56;11.65;;;4.57;;
77872;SDS011;67068;52.116;4.440;2023-09-12T13:30:21;10.40;;;4.50;;
77872;SDS011;67068;52.116;4.440;2023-09-12T13:32:47;8.93;;;4.23;;
77872;SDS011;67068;52.116;4.440;2023-09-12T13:35:12;9.83;;;4.37;;
77872;SDS011;67068;52.116;4.440;2023-09-12T13:37:37;9.03;;;4.63;;
77872;SDS011;67068;52.116;4.440;2023-09-12T13:40:02;9.30;;;4.60;;
77872;SDS011;67068;52.116;4.440;2023-09-12T13:42:28;9.18;;;4.32;;
77872;SDS011;67068;52.116;4.440;2023-09-12T13:44:56;9.60;;;4.43;;
77872;SDS011;67068;52.116;4.440;2023-09-12T13:47:21;8.70;;;3.93;;
77872;SDS011;67068;52.116;4.440;2023-09-12T13:49:47;8.70;;;4.22;;
77872;SDS011;67068;52.116;4.440;2023-09-12T13:52:13;8.88;;;4.53;;
77872;SDS011;67068;52.116;4.440;2023-09-12T13:54:39;9.90;;;3.95;;
77872;SDS011;67068;52.116;4.440;2023-09-12T13:57:05;9.73;;;4.07;;
77872;SDS011;67068;52.116;4.440;2023-09-12T13:59:30;8.63;;;3.93;;
77872;SDS011;67068;52.116;4.440;2023-09-12T14:01:55;8.73;;;4.33;;
77872;SDS011;67068;52.116;4.440;2023-09-12T14:04:20;9.67;;;3.93;;
77872;SDS011;67068;52.116;4.440;2023-09-12T14:06:45;8.80;;;4.20;;
77872;SDS011;67068;52.116;4.440;2023-09-12T14:09:11;9.00;;;4.03;;
77872;SDS011;67068;52.116;4.440;2023-09-12T14:11:36;8.30;;;4.03;;
77872;SDS011;67068;52.116;4.440;2023-09-12T14:14:03;8.18;;;3.67;;
77872;SDS011;67068;52.116;4.440;2023-09-12T14:16:28;8.57;;;4.10;;
77872;SDS011;67068;52.116;4.440;2023-09-12T14:18:53;10.00;;;3.70;;
77872;SDS011;67068;52.116;4.440;2023-09-12T14:21:18;7.83;;;3.80;;
77872;SDS011;67068;52.116;4.440;2023-09-12T14:23:44;8.67;;;4.00;;
77872;SDS011;67068;52.116;4.440;2023-09-12T14:26:09;8.63;;;3.93;;
77872;SDS011;67068;52.116;4.440;2023-09-12T14:28:34;11.93;;;4.90;;
77872;SDS011;67068;52.116;4.440;2023-09-12T14:31:00;11.20;;;5.07;;
77872;SDS011;67068;52.116;4.440;2023-09-12T14:33:25;8.80;;;4.15;;
77872;SDS011;67068;52.116;4.440;2023-09-12T14:35:50;13.10;;;4.37;;
77872;SDS011;67068;52.116;4.440;2023-09-12T14:38:16;9.53;;;4.07;;
77872;SDS011;67068;52.116;4.440;2023-09-12T14:40:41;10.70;;;5.50;;
77872;SDS011;67068;52.116;4.440;2023-09-12T14:43:06;10.43;;;4.73;;
77872;SDS011;67068;52.116;4.440;2023-09-12T14:45:32;9.53;;;4.20;;